sensor_id;sensor_type;location;lat;lon;timestamp;P1;P2;P0
30713;PMS7003;17465;47.934;33.430;2023-05-16T00:00:05;10.25;10.25;8.25
30713;PMS7003;17465;47.934;33.430;2023-05-16T00:02:36;11.75;10.50;8.25
30713;PMS7003;17465;47.934;33.430;2023-05-16T00:05:08;13.00;11.00;7.25
30713;PMS7003;17465;47.934;33.430;2023-05-16T00:07:43;10.50;10.00;7.25
30713;PMS7003;17465;47.934;33.430;2023-05-16T00:10:16;14.25;14.25;10.50
30713;PMS7003;17465;47.934;33.430;2023-05-16T00:12:52;7.50;7.50;3.00
30713;PMS7003;17465;47.934;33.430;2023-05-16T00:15:25;11.00;11.00;7.00
30713;PMS7003;17465;47.934;33.430;2023-05-16T00:17:57;9.00;9.00;7.00
30713;PMS7003;17465;47.934;33.430;2023-05-16T00:20:30;13.00;12.25;9.00
30713;PMS7003;17465;47.934;33.430;2023-05-16T00:23:02;14.50;13.75;8.75
30713;PMS7003;17465;47.934;33.430;2023-05-16T00:25:33;8.25;8.25;5.50
30713;PMS7003;17465;47.934;33.430;2023-05-16T00:28:08;13.75;12.75;9.50
30713;PMS7003;17465;47.934;33.430;2023-05-16T00:30:56;14.75;14.75;11.25
30713;PMS7003;17465;47.934;33.430;2023-05-16T00:33:12;14.25;14.25;9.75
30713;PMS7003;17465;47.934;33.430;2023-05-16T00:35:43;14.75;13.25;10.00
30713;PMS7003;17465;47.934;33.430;2023-05-16T00:38:15;13.50;13.25;9.50
30713;PMS7003;17465;47.934;33.430;2023-05-16T00:40:47;14.00;13.25;8.25
30713;PMS7003;17465;47.934;33.430;2023-05-16T00:43:18;13.00;13.00;9.00
30713;PMS7003;17465;47.934;33.430;2023-05-16T00:45:48;14.50;13.25;9.25
30713;PMS7003;17465;47.934;33.430;2023-05-16T00:48:19;18.25;17.00;11.00
30713;PMS7003;17465;47.934;33.430;2023-05-16T00:50:52;14.75;14.75;10.50
30713;PMS7003;17465;47.934;33.430;2023-05-16T00:53:23;14.00;13.50;9.50
30713;PMS7003;17465;47.934;33.430;2023-05-16T00:55:55;15.25;15.25;11.25
30713;PMS7003;17465;47.934;33.430;2023-05-16T00:58:26;14.75;14.25;10.25
30713;PMS7003;17465;47.934;33.430;2023-05-16T01:00:59;15.50;15.00;10.25
30713;PMS7003;17465;47.934;33.430;2023-05-16T01:03:30;19.50;17.75;11.00
30713;PMS7003;17465;47.934;33.430;2023-05-16T01:06:01;18.25;18.25;11.00
30713;PMS7003;17465;47.934;33.430;2023-05-16T01:08:31;15.00;15.00;11.50
30713;PMS7003;17465;47.934;33.430;2023-05-16T01:14:11;18.50;17.50;12.50
30713;PMS7003;17465;47.934;33.430;2023-05-16T01:16:58;18.00;18.00;11.00
30713;PMS7003;17465;47.934;33.430;2023-05-16T01:28:13;19.00;18.00;12.75
30713;PMS7003;17465;47.934;33.430;2023-05-16T01:30:44;20.00;20.00;11.75
30713;PMS7003;17465;47.934;33.430;2023-05-16T01:33:15;17.50;16.75;11.25
30713;PMS7003;17465;47.934;33.430;2023-05-16T01:35:50;19.00;19.00;10.00
30713;PMS7003;17465;47.934;33.430;2023-05-16T01:38:25;19.50;17.00;11.00
30713;PMS7003;17465;47.934;33.430;2023-05-16T01:44:59;18.00;18.00;10.50
30713;PMS7003;17465;47.934;33.430;2023-05-16T01:46:46;20.25;19.00;13.25
30713;PMS7003;17465;47.934;33.430;2023-05-16T01:49:45;19.00;19.00;13.25
30713;PMS7003;17465;47.934;33.430;2023-05-16T01:52:14;16.00;16.00;11.00
30713;PMS7003;17465;47.934;33.430;2023-05-16T01:54:47;22.50;20.75;14.75
30713;PMS7003;17465;47.934;33.430;2023-05-16T01:57:21;23.00;21.75;14.00
30713;PMS7003;17465;47.934;33.430;2023-05-16T01:59:57;23.25;22.75;13.75
30713;PMS7003;17465;47.934;33.430;2023-05-16T02:02:29;24.75;23.75;16.25
30713;PMS7003;17465;47.934;33.430;2023-05-16T02:05:03;20.50;20.50;13.75
30713;PMS7003;17465;47.934;33.430;2023-05-16T02:07:34;24.75;21.50;15.50
30713;PMS7003;17465;47.934;33.430;2023-05-16T02:10:07;20.75;20.25;16.25
30713;PMS7003;17465;47.934;33.430;2023-05-16T02:12:38;21.25;21.00;15.25
30713;PMS7003;17465;47.934;33.430;2023-05-16T02:15:11;20.25;20.25;13.25
30713;PMS7003;17465;47.934;33.430;2023-05-16T02:17:43;24.00;22.25;15.25
30713;PMS7003;17465;47.934;33.430;2023-05-16T02:20:13;19.75;18.00;11.00
30713;PMS7003;17465;47.934;33.430;2023-05-16T02:22:44;27.75;25.75;15.75
30713;PMS7003;17465;47.934;33.430;2023-05-16T02:25:14;20.25;20.25;14.25
30713;PMS7003;17465;47.934;33.430;2023-05-16T02:27:45;22.25;20.25;15.00
30713;PMS7003;17465;47.934;33.430;2023-05-16T02:30:18;21.00;21.00;16.50
30713;PMS7003;17465;47.934;33.430;2023-05-16T02:32:50;14.00;11.25;9.50
30713;PMS7003;17465;47.934;33.430;2023-05-16T02:35:28;18.25;17.50;10.50
30713;PMS7003;17465;47.934;33.430;2023-05-16T02:37:58;22.50;21.00;13.25
30713;PMS7003;17465;47.934;33.430;2023-05-16T02:40:29;18.75;18.75;10.50
30713;PMS7003;17465;47.934;33.430;2023-05-16T02:42:59;18.50;18.50;12.25
30713;PMS7003;17465;47.934;33.430;2023-05-16T02:45:30;23.00;20.00;13.75
30713;PMS7003;17465;47.934;33.430;2023-05-16T02:48:00;26.50;22.50;15.00
30713;PMS7003;17465;47.934;33.430;2023-05-16T02:50:32;19.00;18.00;14.25
30713;PMS7003;17465;47.934;33.430;2023-05-16T02:53:05;20.75;18.25;12.75
30713;PMS7003;17465;47.934;33.430;2023-05-16T02:55:35;19.50;18.75;13.25
30713;PMS7003;17465;47.934;33.430;2023-05-16T02:58:06;22.50;20.25;14.75
30713;PMS7003;17465;47.934;33.430;2023-05-16T03:00:36;20.75;19.75;12.75
30713;PMS7003;17465;47.934;33.430;2023-05-16T03:03:06;20.25;20.25;13.25
30713;PMS7003;17465;47.934;33.430;2023-05-16T03:05:37;19.50;18.50;12.00
30713;PMS7003;17465;47.934;33.430;2023-05-16T03:08:08;21.50;17.25;10.25
30713;PMS7003;17465;47.934;33.430;2023-05-16T03:10:38;22.00;20.50;14.25
30713;PMS7003;17465;47.934;33.430;2023-05-16T03:13:08;24.00;22.00;14.50
30713;PMS7003;17465;47.934;33.430;2023-05-16T03:15:39;24.25;24.00;18.00
30713;PMS7003;17465;47.934;33.430;2023-05-16T03:18:09;25.25;23.50;16.25
30713;PMS7003;17465;47.934;33.430;2023-05-16T03:20:40;23.50;22.00;16.00
30713;PMS7003;17465;47.934;33.430;2023-05-16T03:23:10;20.50;20.50;14.75
30713;PMS7003;17465;47.934;33.430;2023-05-16T03:25:42;19.25;19.25;13.00
30713;PMS7003;17465;47.934;33.430;2023-05-16T03:28:13;21.00;21.00;14.75
30713;PMS7003;17465;47.934;33.430;2023-05-16T03:30:45;22.75;20.50;14.25
30713;PMS7003;17465;47.934;33.430;2023-05-16T03:33:16;22.00;22.00;14.00
30713;PMS7003;17465;47.934;33.430;2023-05-16T03:35:48;19.75;19.75;12.00
30713;PMS7003;17465;47.934;33.430;2023-05-16T03:38:19;26.00;24.75;14.75
30713;PMS7003;17465;47.934;33.430;2023-05-16T03:40:49;19.25;19.25;13.50
30713;PMS7003;17465;47.934;33.430;2023-05-16T03:43:20;22.00;21.00;13.50
30713;PMS7003;17465;47.934;33.430;2023-05-16T03:45:50;20.50;20.50;14.50
30713;PMS7003;17465;47.934;33.430;2023-05-16T03:48:20;24.50;21.75;14.00
30713;PMS7003;17465;47.934;33.430;2023-05-16T03:50:51;20.50;20.50;12.50
30713;PMS7003;17465;47.934;33.430;2023-05-16T03:53:21;18.50;18.25;12.00
30713;PMS7003;17465;47.934;33.430;2023-05-16T03:55:52;21.50;21.50;12.25
30713;PMS7003;17465;47.934;33.430;2023-05-16T03:58:22;19.25;18.25;13.25
30713;PMS7003;17465;47.934;33.430;2023-05-16T04:00:53;21.00;20.50;14.50
30713;PMS7003;17465;47.934;33.430;2023-05-16T04:03:23;21.75;21.50;13.75
30713;PMS7003;17465;47.934;33.430;2023-05-16T04:05:54;22.00;21.00;14.50
30713;PMS7003;17465;47.934;33.430;2023-05-16T04:08:24;17.25;17.25;13.75
30713;PMS7003;17465;47.934;33.430;2023-05-16T04:10:55;25.75;21.50;14.25
30713;PMS7003;17465;47.934;33.430;2023-05-16T04:13:25;27.50;24.75;15.75
30713;PMS7003;17465;47.934;33.430;2023-05-16T04:15:55;29.75;29.00;18.75
30713;PMS7003;17465;47.934;33.430;2023-05-16T04:18:26;28.50;26.50;18.50
30713;PMS7003;17465;47.934;33.430;2023-05-16T04:20:56;33.50;30.00;19.50
30713;PMS7003;17465;47.934;33.430;2023-05-16T04:23:26;34.25;32.00;20.00
30713;PMS7003;17465;47.934;33.430;2023-05-16T04:25:57;36.75;29.75;19.75
30713;PMS7003;17465;47.934;33.430;2023-05-16T04:28:27;33.50;30.25;18.75
30713;PMS7003;17465;47.934;33.430;2023-05-16T04:30:57;31.75;30.25;20.00
30713;PMS7003;17465;47.934;33.430;2023-05-16T04:33:28;33.50;30.00;18.00
30713;PMS7003;17465;47.934;33.430;2023-05-16T04:35:58;30.50;28.75;20.25
30713;PMS7003;17465;47.934;33.430;2023-05-16T04:38:29;33.25;31.00;20.75
30713;PMS7003;17465;47.934;33.430;2023-05-16T04:40:59;28.50;27.00;19.75
30713;PMS7003;17465;47.934;33.430;2023-05-16T04:43:30;30.25;29.00;21.50
30713;PMS7003;17465;47.934;33.430;2023-05-16T04:46:00;32.75;31.75;22.25
30713;PMS7003;17465;47.934;33.430;2023-05-16T04:48:31;30.50;30.00;20.00
30713;PMS7003;17465;47.934;33.430;2023-05-16T04:51:02;36.75;32.00;22.25
30713;PMS7003;17465;47.934;33.430;2023-05-16T04:53:32;41.50;35.00;23.00
30713;PMS7003;17465;47.934;33.430;2023-05-16T04:56:03;33.25;31.50;22.25
30713;PMS7003;17465;47.934;33.430;2023-05-16T04:58:34;30.75;29.00;21.25
30713;PMS7003;17465;47.934;33.430;2023-05-16T05:01:04;34.25;30.50;22.00
30713;PMS7003;17465;47.934;33.430;2023-05-16T05:03:35;37.50;31.00;21.50
30713;PMS7003;17465;47.934;33.430;2023-05-16T05:06:05;35.75;32.50;22.00
30713;PMS7003;17465;47.934;33.430;2023-05-16T05:08:36;38.50;31.25;19.75
30713;PMS7003;17465;47.934;33.430;2023-05-16T05:11:07;37.25;33.25;23.00
30713;PMS7003;17465;47.934;33.430;2023-05-16T05:13:37;44.00;37.50;23.50
30713;PMS7003;17465;47.934;33.430;2023-05-16T05:16:07;45.50;38.50;25.00
30713;PMS7003;17465;47.934;33.430;2023-05-16T05:18:38;47.25;38.00;26.00
30713;PMS7003;17465;47.934;33.430;2023-05-16T05:21:08;37.75;34.00;23.00
30713;PMS7003;17465;47.934;33.430;2023-05-16T05:23:39;43.50;37.00;26.00
30713;PMS7003;17465;47.934;33.430;2023-05-16T05:26:09;43.00;35.00;25.25
30713;PMS7003;17465;47.934;33.430;2023-05-16T05:28:39;41.75;35.50;23.50
30713;PMS7003;17465;47.934;33.430;2023-05-16T05:31:13;36.25;33.25;22.00
30713;PMS7003;17465;47.934;33.430;2023-05-16T05:33:44;39.50;34.00;22.25
30713;PMS7003;17465;47.934;33.430;2023-05-16T05:36:14;39.00;33.50;24.75
30713;PMS7003;17465;47.934;33.430;2023-05-16T05:38:56;38.80;34.00;24.20
30713;PMS7003;17465;47.934;33.430;2023-05-16T05:41:27;28.80;25.60;18.20
30713;PMS7003;17465;47.934;33.430;2023-05-16T05:44:02;27.40;26.80;18.80
30713;PMS7003;17465;47.934;33.430;2023-05-16T05:46:33;21.40;21.20;16.00
30713;PMS7003;17465;47.934;33.430;2023-05-16T05:49:04;26.80;23.40;18.20
30713;PMS7003;17465;47.934;33.430;2023-05-16T05:51:35;20.00;18.00;11.20
30713;PMS7003;17465;47.934;33.430;2023-05-16T05:54:05;16.20;15.60;12.60
30713;PMS7003;17465;47.934;33.430;2023-05-16T05:56:36;11.20;10.00;6.80
30713;PMS7003;17465;47.934;33.430;2023-05-16T05:59:09;12.20;12.20;7.60
30713;PMS7003;17465;47.934;33.430;2023-05-16T06:01:40;14.00;14.00;10.40
30713;PMS7003;17465;47.934;33.430;2023-05-16T06:04:11;13.00;12.60;7.40
30713;PMS7003;17465;47.934;33.430;2023-05-16T06:06:41;13.80;13.60;9.40
30713;PMS7003;17465;47.934;33.430;2023-05-16T06:09:11;10.80;10.80;7.00
30713;PMS7003;17465;47.934;33.430;2023-05-16T06:11:42;11.80;10.20;8.00
30713;PMS7003;17465;47.934;33.430;2023-05-16T06:14:13;9.80;9.00;7.40
30713;PMS7003;17465;47.934;33.430;2023-05-16T06:16:46;14.40;13.80;9.00
30713;PMS7003;17465;47.934;33.430;2023-05-16T06:19:17;11.40;9.20;6.80
30713;PMS7003;17465;47.934;33.430;2023-05-16T06:21:50;11.00;9.20;5.40
30713;PMS7003;17465;47.934;33.430;2023-05-16T06:24:27;6.60;6.60;4.40
30713;PMS7003;17465;47.934;33.430;2023-05-16T06:27:09;10.00;10.00;7.20
30713;PMS7003;17465;47.934;33.430;2023-05-16T06:30:05;10.60;10.60;7.60
30713;PMS7003;17465;47.934;33.430;2023-05-16T06:32:40;12.00;12.00;8.00
30713;PMS7003;17465;47.934;33.430;2023-05-16T06:35:10;10.80;10.80;7.80
30713;PMS7003;17465;47.934;33.430;2023-05-16T06:37:44;10.40;10.40;6.80
30713;PMS7003;17465;47.934;33.430;2023-05-16T06:40:21;13.20;12.00;9.20
30713;PMS7003;17465;47.934;33.430;2023-05-16T06:42:53;13.00;12.20;10.00
30713;PMS7003;17465;47.934;33.430;2023-05-16T06:45:24;15.20;14.40;9.80
30713;PMS7003;17465;47.934;33.430;2023-05-16T06:47:55;16.40;14.00;10.80
30713;PMS7003;17465;47.934;33.430;2023-05-16T06:50:25;12.60;12.60;8.40
30713;PMS7003;17465;47.934;33.430;2023-05-16T06:52:56;10.80;10.80;7.80
30713;PMS7003;17465;47.934;33.430;2023-05-16T06:55:31;13.20;13.20;10.60
30713;PMS7003;17465;47.934;33.430;2023-05-16T06:58:02;11.20;11.00;7.00
30713;PMS7003;17465;47.934;33.430;2023-05-16T07:00:33;11.60;11.60;9.00
30713;PMS7003;17465;47.934;33.430;2023-05-16T07:03:03;13.60;13.60;9.40
30713;PMS7003;17465;47.934;33.430;2023-05-16T07:05:34;11.80;11.20;8.20
30713;PMS7003;17465;47.934;33.430;2023-05-16T07:08:05;2.60;1.40;0.60
30713;PMS7003;17465;47.934;33.430;2023-05-16T07:10:37;10.40;10.00;7.00
30713;PMS7003;17465;47.934;33.430;2023-05-16T07:13:16;12.40;12.40;9.00
30713;PMS7003;17465;47.934;33.430;2023-05-16T07:15:41;11.80;11.80;9.00
30713;PMS7003;17465;47.934;33.430;2023-05-16T07:18:11;12.60;11.20;9.40
30713;PMS7003;17465;47.934;33.430;2023-05-16T07:20:46;10.80;10.20;7.60
30713;PMS7003;17465;47.934;33.430;2023-05-16T07:23:20;9.80;9.80;8.60
30713;PMS7003;17465;47.934;33.430;2023-05-16T07:25:52;9.00;9.00;6.60
30713;PMS7003;17465;47.934;33.430;2023-05-16T07:28:23;10.00;10.00;7.80
30713;PMS7003;17465;47.934;33.430;2023-05-16T07:30:54;19.40;18.80;12.60
30713;PMS7003;17465;47.934;33.430;2023-05-16T07:33:24;8.00;8.00;6.00
30713;PMS7003;17465;47.934;33.430;2023-05-16T07:35:55;11.20;10.40;8.40
30713;PMS7003;17465;47.934;33.430;2023-05-16T07:38:27;9.80;9.80;7.40
30713;PMS7003;17465;47.934;33.430;2023-05-16T07:40:57;9.20;8.60;6.00
30713;PMS7003;17465;47.934;33.430;2023-05-16T07:43:27;9.20;9.20;7.60
30713;PMS7003;17465;47.934;33.430;2023-05-16T07:45:58;11.80;11.00;7.60
30713;PMS7003;17465;47.934;33.430;2023-05-16T07:48:29;11.60;10.20;7.80
30713;PMS7003;17465;47.934;33.430;2023-05-16T07:51:00;11.60;10.20;7.40
30713;PMS7003;17465;47.934;33.430;2023-05-16T07:53:31;12.60;12.20;10.00
30713;PMS7003;17465;47.934;33.430;2023-05-16T07:56:01;12.20;12.20;9.80
30713;PMS7003;17465;47.934;33.430;2023-05-16T07:58:32;9.80;9.80;6.80
30713;PMS7003;17465;47.934;33.430;2023-05-16T08:01:02;9.00;9.00;7.20
30713;PMS7003;17465;47.934;33.430;2023-05-16T08:03:33;10.00;10.00;6.40
30713;PMS7003;17465;47.934;33.430;2023-05-16T08:06:04;11.80;11.80;7.60
30713;PMS7003;17465;47.934;33.430;2023-05-16T08:08:35;11.20;10.00;7.80
30713;PMS7003;17465;47.934;33.430;2023-05-16T08:11:05;10.00;10.00;7.20
30713;PMS7003;17465;47.934;33.430;2023-05-16T08:13:36;10.20;10.20;8.20
30713;PMS7003;17465;47.934;33.430;2023-05-16T08:16:06;12.00;11.80;8.60
30713;PMS7003;17465;47.934;33.430;2023-05-16T08:18:37;10.60;10.60;6.80
30713;PMS7003;17465;47.934;33.430;2023-05-16T08:21:07;15.40;15.00;11.00
30713;PMS7003;17465;47.934;33.430;2023-05-16T08:23:41;9.20;9.20;7.00
30713;PMS7003;17465;47.934;33.430;2023-05-16T08:26:11;11.00;10.60;8.00
30713;PMS7003;17465;47.934;33.430;2023-05-16T08:28:42;8.40;8.40;6.80
30713;PMS7003;17465;47.934;33.430;2023-05-16T08:31:12;6.60;6.60;4.80
30713;PMS7003;17465;47.934;33.430;2023-05-16T08:33:43;6.60;6.20;5.00
30713;PMS7003;17465;47.934;33.430;2023-05-16T08:36:13;9.20;8.00;6.00
30713;PMS7003;17465;47.934;33.430;2023-05-16T08:38:43;11.00;10.60;8.40
30713;PMS7003;17465;47.934;33.430;2023-05-16T08:41:14;11.40;11.40;8.20
30713;PMS7003;17465;47.934;33.430;2023-05-16T08:43:44;9.40;9.40;6.20
30713;PMS7003;17465;47.934;33.430;2023-05-16T08:46:15;10.60;10.60;7.80
30713;PMS7003;17465;47.934;33.430;2023-05-16T08:48:52;12.20;10.80;8.00
30713;PMS7003;17465;47.934;33.430;2023-05-16T08:51:24;9.60;9.60;7.00
30713;PMS7003;17465;47.934;33.430;2023-05-16T08:54:02;10.60;10.00;7.60
30713;PMS7003;17465;47.934;33.430;2023-05-16T08:56:30;9.40;9.40;8.00
30713;PMS7003;17465;47.934;33.430;2023-05-16T08:59:06;12.00;11.80;8.00
30713;PMS7003;17465;47.934;33.430;2023-05-16T09:01:36;11.00;11.00;9.40
30713;PMS7003;17465;47.934;33.430;2023-05-16T09:04:07;11.00;10.20;7.60
30713;PMS7003;17465;47.934;33.430;2023-05-16T09:06:38;10.60;9.60;7.60
30713;PMS7003;17465;47.934;33.430;2023-05-16T09:09:08;11.00;11.00;7.60
30713;PMS7003;17465;47.934;33.430;2023-05-16T09:11:39;10.60;10.60;8.20
30713;PMS7003;17465;47.934;33.430;2023-05-16T09:14:11;10.00;10.00;8.00
30713;PMS7003;17465;47.934;33.430;2023-05-16T09:16:41;11.00;11.00;7.80
30713;PMS7003;17465;47.934;33.430;2023-05-16T09:19:13;12.00;11.80;7.60
30713;PMS7003;17465;47.934;33.430;2023-05-16T09:21:43;8.60;8.60;7.40
30713;PMS7003;17465;47.934;33.430;2023-05-16T09:24:14;8.80;8.80;6.60
30713;PMS7003;17465;47.934;33.430;2023-05-16T09:26:44;10.80;10.80;8.40
30713;PMS7003;17465;47.934;33.430;2023-05-16T09:29:15;11.80;10.80;8.20
30713;PMS7003;17465;47.934;33.430;2023-05-16T09:31:48;9.20;7.80;6.20
30713;PMS7003;17465;47.934;33.430;2023-05-16T09:34:18;9.40;9.40;7.40
30713;PMS7003;17465;47.934;33.430;2023-05-16T09:37:09;10.20;9.00;6.00
30713;PMS7003;17465;47.934;33.430;2023-05-16T09:39:52;12.20;12.20;9.40
30713;PMS7003;17465;47.934;33.430;2023-05-16T09:42:24;11.20;11.20;9.00
30713;PMS7003;17465;47.934;33.430;2023-05-16T09:44:54;11.20;11.20;8.00
30713;PMS7003;17465;47.934;33.430;2023-05-16T09:47:26;12.60;12.60;9.60
30713;PMS7003;17465;47.934;33.430;2023-05-16T09:49:57;12.60;11.80;9.00
30713;PMS7003;17465;47.934;33.430;2023-05-16T09:52:28;14.00;14.00;9.20
30713;PMS7003;17465;47.934;33.430;2023-05-16T09:54:59;11.20;11.20;8.00
30713;PMS7003;17465;47.934;33.430;2023-05-16T09:57:31;11.00;11.00;7.20
30713;PMS7003;17465;47.934;33.430;2023-05-16T10:00:06;10.00;10.00;7.00
30713;PMS7003;17465;47.934;33.430;2023-05-16T10:02:41;11.20;10.00;7.40
30713;PMS7003;17465;47.934;33.430;2023-05-16T10:05:14;12.20;11.80;8.00
30713;PMS7003;17465;47.934;33.430;2023-05-16T10:07:47;13.80;13.80;9.80
30713;PMS7003;17465;47.934;33.430;2023-05-16T10:10:19;12.40;12.00;9.20
30713;PMS7003;17465;47.934;33.430;2023-05-16T10:12:50;9.00;8.60;5.40
30713;PMS7003;17465;47.934;33.430;2023-05-16T10:15:25;11.80;11.00;7.80
30713;PMS7003;17465;47.934;33.430;2023-05-16T10:17:56;11.00;11.00;7.60
30713;PMS7003;17465;47.934;33.430;2023-05-16T10:20:35;11.40;11.00;8.40
30713;PMS7003;17465;47.934;33.430;2023-05-16T10:23:08;13.20;13.20;9.60
30713;PMS7003;17465;47.934;33.430;2023-05-16T10:25:41;11.80;11.00;8.80
30713;PMS7003;17465;47.934;33.430;2023-05-16T10:28:13;10.80;10.40;8.00
30713;PMS7003;17465;47.934;33.430;2023-05-16T10:30:46;12.40;11.00;9.40
30713;PMS7003;17465;47.934;33.430;2023-05-16T10:33:17;9.40;8.60;6.00
30713;PMS7003;17465;47.934;33.430;2023-05-16T10:35:52;13.00;11.00;7.60
30713;PMS7003;17465;47.934;33.430;2023-05-16T10:38:25;13.00;11.80;8.20
30713;PMS7003;17465;47.934;33.430;2023-05-16T10:40:58;10.00;10.00;7.00
30713;PMS7003;17465;47.934;33.430;2023-05-16T10:43:29;11.40;11.40;8.60
30713;PMS7003;17465;47.934;33.430;2023-05-16T10:46:03;13.40;12.80;9.20
30713;PMS7003;17465;47.934;33.430;2023-05-16T10:48:37;10.60;10.60;9.00
30713;PMS7003;17465;47.934;33.430;2023-05-16T10:54:08;11.20;11.20;9.40
30713;PMS7003;17465;47.934;33.430;2023-05-16T10:56:45;10.20;10.20;7.00
30713;PMS7003;17465;47.934;33.430;2023-05-16T10:59:22;11.80;11.80;8.80
30713;PMS7003;17465;47.934;33.430;2023-05-16T11:01:54;8.60;8.60;6.60
30713;PMS7003;17465;47.934;33.430;2023-05-16T11:05:16;9.00;9.00;5.00
30713;PMS7003;17465;47.934;33.430;2023-05-16T11:07:17;14.20;13.20;9.80
30713;PMS7003;17465;47.934;33.430;2023-05-16T11:10:02;11.60;11.60;9.00
30713;PMS7003;17465;47.934;33.430;2023-05-16T11:12:50;12.00;12.00;7.40
30713;PMS7003;17465;47.934;33.430;2023-05-16T11:18:03;8.80;8.40;6.20
30713;PMS7003;17465;47.934;33.430;2023-05-16T11:20:40;11.40;10.60;7.20
30713;PMS7003;17465;47.934;33.430;2023-05-16T11:23:23;11.20;10.60;7.20
30713;PMS7003;17465;47.934;33.430;2023-05-16T11:25:57;10.00;9.00;6.40
30713;PMS7003;17465;47.934;33.430;2023-05-16T11:28:27;10.60;10.40;8.20
30713;PMS7003;17465;47.934;33.430;2023-05-16T11:30:58;8.00;8.00;6.20
30713;PMS7003;17465;47.934;33.430;2023-05-16T11:33:29;7.80;7.80;6.40
30713;PMS7003;17465;47.934;33.430;2023-05-16T11:36:06;8.40;8.00;6.80
30713;PMS7003;17465;47.934;33.430;2023-05-16T11:38:39;9.00;8.80;5.80
30713;PMS7003;17465;47.934;33.430;2023-05-16T11:41:09;11.00;11.00;7.60
30713;PMS7003;17465;47.934;33.430;2023-05-16T11:43:42;11.80;11.00;8.80
30713;PMS7003;17465;47.934;33.430;2023-05-16T11:46:15;13.20;13.20;11.00
30713;PMS7003;17465;47.934;33.430;2023-05-16T11:48:48;17.20;14.80;11.00
30713;PMS7003;17465;47.934;33.430;2023-05-16T11:51:19;18.40;16.60;11.00
30713;PMS7003;17465;47.934;33.430;2023-05-16T11:53:50;13.20;13.20;10.80
30713;PMS7003;17465;47.934;33.430;2023-05-16T11:56:23;15.40;14.00;10.60
30713;PMS7003;17465;47.934;33.430;2023-05-16T11:58:53;25.40;24.80;16.60
30713;PMS7003;17465;47.934;33.430;2023-05-16T12:01:38;24.20;22.20;16.20
30713;PMS7003;17465;47.934;33.430;2023-05-16T12:04:10;23.60;23.20;16.60
30713;PMS7003;17465;47.934;33.430;2023-05-16T12:06:41;23.60;23.40;16.40
30713;PMS7003;17465;47.934;33.430;2023-05-16T12:09:18;24.00;23.00;16.60
30713;PMS7003;17465;47.934;33.430;2023-05-16T12:11:46;22.80;22.60;14.80
30713;PMS7003;17465;47.934;33.430;2023-05-16T12:14:17;27.25;25.75;17.75
30713;PMS7003;17465;47.934;33.430;2023-05-16T12:16:51;23.00;21.40;14.80
30713;PMS7003;17465;47.934;33.430;2023-05-16T12:19:22;19.00;18.60;14.60
30713;PMS7003;17465;47.934;33.430;2023-05-16T12:21:53;26.00;25.80;17.20
30713;PMS7003;17465;47.934;33.430;2023-05-16T12:24:33;23.60;22.20;15.80
30713;PMS7003;17465;47.934;33.430;2023-05-16T12:26:59;24.20;23.20;15.20
30713;PMS7003;17465;47.934;33.430;2023-05-16T12:29:33;21.00;19.80;13.80
30713;PMS7003;17465;47.934;33.430;2023-05-16T12:32:03;21.60;21.60;14.20
30713;PMS7003;17465;47.934;33.430;2023-05-16T12:34:36;18.80;18.40;14.00
30713;PMS7003;17465;47.934;33.430;2023-05-16T12:37:08;23.40;20.40;14.40
30713;PMS7003;17465;47.934;33.430;2023-05-16T12:39:42;23.00;21.80;15.20
30713;PMS7003;17465;47.934;33.430;2023-05-16T12:42:13;20.00;19.20;14.20
30713;PMS7003;17465;47.934;33.430;2023-05-16T12:44:44;23.80;22.00;14.40
30713;PMS7003;17465;47.934;33.430;2023-05-16T12:47:21;26.00;24.00;16.80
30713;PMS7003;17465;47.934;33.430;2023-05-16T12:49:46;24.00;23.40;15.40
30713;PMS7003;17465;47.934;33.430;2023-05-16T12:52:17;20.40;19.40;14.20
30713;PMS7003;17465;47.934;33.430;2023-05-16T12:54:49;21.00;20.00;14.40
30713;PMS7003;17465;47.934;33.430;2023-05-16T12:57:20;22.00;22.00;15.80
30713;PMS7003;17465;47.934;33.430;2023-05-16T12:59:50;24.00;22.80;15.80
30713;PMS7003;17465;47.934;33.430;2023-05-16T13:02:21;44.60;37.40;24.60
30713;PMS7003;17465;47.934;33.430;2023-05-16T13:04:52;21.20;19.80;14.40
30713;PMS7003;17465;47.934;33.430;2023-05-16T13:07:36;20.20;18.80;13.80
30713;PMS7003;17465;47.934;33.430;2023-05-16T13:10:10;20.20;19.20;13.40
30713;PMS7003;17465;47.934;33.430;2023-05-16T13:12:41;23.20;21.40;14.60
30713;PMS7003;17465;47.934;33.430;2023-05-16T13:15:16;22.00;19.20;12.40
30713;PMS7003;17465;47.934;33.430;2023-05-16T13:17:53;21.20;20.00;15.80
30713;PMS7003;17465;47.934;33.430;2023-05-16T13:20:23;23.40;21.80;15.40
30713;PMS7003;17465;47.934;33.430;2023-05-16T13:23:05;22.00;21.80;15.60
30713;PMS7003;17465;47.934;33.430;2023-05-16T13:25:32;22.20;21.80;16.60
30713;PMS7003;17465;47.934;33.430;2023-05-16T13:28:03;18.00;16.40;11.60
30713;PMS7003;17465;47.934;33.430;2023-05-16T13:30:37;17.20;16.60;12.40
30713;PMS7003;17465;47.934;33.430;2023-05-16T13:33:10;21.20;17.20;12.00
30713;PMS7003;17465;47.934;33.430;2023-05-16T13:35:51;21.80;19.40;13.60
30713;PMS7003;17465;47.934;33.430;2023-05-16T13:38:23;12.20;12.20;7.60
30713;PMS7003;17465;47.934;33.430;2023-05-16T13:40:56;19.60;18.20;14.20
30713;PMS7003;17465;47.934;33.430;2023-05-16T13:43:27;17.20;16.60;11.40
30713;PMS7003;17465;47.934;33.430;2023-05-16T13:46:01;17.00;16.80;10.60
30713;PMS7003;17465;47.934;33.430;2023-05-16T13:48:32;18.20;17.80;12.60
30713;PMS7003;17465;47.934;33.430;2023-05-16T13:51:03;16.60;16.60;12.20
30713;PMS7003;17465;47.934;33.430;2023-05-16T13:53:34;16.00;15.80;11.40
30713;PMS7003;17465;47.934;33.430;2023-05-16T13:56:04;18.60;17.80;11.00
30713;PMS7003;17465;47.934;33.430;2023-05-16T13:58:35;16.60;16.60;12.60
30713;PMS7003;17465;47.934;33.430;2023-05-16T14:01:07;18.20;15.80;11.00
30713;PMS7003;17465;47.934;33.430;2023-05-16T14:03:38;16.60;16.20;12.40
30713;PMS7003;17465;47.934;33.430;2023-05-16T14:06:08;16.00;16.00;10.40
30713;PMS7003;17465;47.934;33.430;2023-05-16T14:08:39;15.80;15.80;11.60
30713;PMS7003;17465;47.934;33.430;2023-05-16T14:11:09;21.20;21.20;15.20
30713;PMS7003;17465;47.934;33.430;2023-05-16T14:13:40;22.80;20.00;13.00
30713;PMS7003;17465;47.934;33.430;2023-05-16T14:16:10;18.00;16.60;12.20
30713;PMS7003;17465;47.934;33.430;2023-05-16T14:21:23;17.00;16.00;10.80
30713;PMS7003;17465;47.934;33.430;2023-05-16T14:23:56;13.80;13.80;10.20
30713;PMS7003;17465;47.934;33.430;2023-05-16T14:26:27;18.60;15.60;11.20
30713;PMS7003;17465;47.934;33.430;2023-05-16T14:28:58;26.40;25.00;17.80
30713;PMS7003;17465;47.934;33.430;2023-05-16T14:31:35;27.60;25.80;18.20